createdAt,value
2018-12-27T00:00:56.652Z,1175.00
2018-12-27T00:01:56.675Z,1173.40
2018-12-27T00:02:56.685Z,1184.70
2018-12-27T00:03:56.626Z,1182.20
2018-12-27T00:04:56.612Z,1175.50
2018-12-27T00:05:56.632Z,1187.50
2018-12-27T00:06:56.621Z,1173.80
2018-12-27T00:07:56.656Z,1174.20
2018-12-27T00:08:56.604Z,1191.50
2018-12-27T00:09:56.584Z,1174.20
2018-12-27T00:10:56.593Z,1190.30
2018-12-27T00:11:56.592Z,1181.30
2018-12-27T00:12:56.616Z,1166.30
2018-12-27T00:13:56.566Z,1185.80
2018-12-27T00:14:56.539Z,1182.90
2018-12-27T00:15:56.554Z,1174.20
2018-12-27T00:16:56.515Z,1172.00
2018-12-27T00:17:56.537Z,1173.20
2018-12-27T00:18:56.587Z,1184.10
2018-12-27T00:19:56.563Z,1182.80
2018-12-27T00:20:56.498Z,1180.40
2018-12-27T00:21:56.515Z,1175.00
2018-12-27T00:22:56.500Z,1167.60
2018-12-27T00:23:56.528Z,1173.50
2018-12-27T00:24:56.523Z,1166.70
2018-12-27T00:25:56.497Z,1185.40
2018-12-27T00:26:56.464Z,1180.10
2018-12-27T00:27:56.438Z,1179.90
2018-12-27T00:28:56.433Z,1156.70
2018-12-27T00:29:56.436Z,1178.70
2018-12-27T00:30:56.433Z,1174.60
2018-12-27T00:31:56.410Z,1170.30
2018-12-27T00:33:02.919Z,1182.60
2018-12-27T00:33:56.383Z,1183.10
2018-12-27T00:34:56.381Z,1179.00
2018-12-27T00:35:56.387Z,1174.40
2018-12-27T00:36:57.881Z,1179.50
2018-12-27T00:37:56.365Z,1178.80
2018-12-27T00:38:56.358Z,1178.40
2018-12-27T00:39:56.372Z,1169.70
2018-12-27T00:40:56.342Z,1185.00
2018-12-27T00:41:56.345Z,1178.00
2018-12-27T00:42:56.339Z,1171.50
2018-12-27T00:43:56.309Z,1183.00
2018-12-27T00:44:56.364Z,1175.20
2018-12-27T00:45:56.314Z,1171.00
2018-12-27T00:46:56.280Z,1180.90
2018-12-27T00:47:56.302Z,1162.50
2018-12-27T00:48:56.287Z,1177.10
2018-12-27T00:49:56.321Z,1174.50
2018-12-27T00:50:56.275Z,1180.60
2018-12-27T00:51:56.250Z,1164.30
2018-12-27T00:52:56.262Z,1173.50
2018-12-27T00:53:56.250Z,1180.90
2018-12-27T00:54:56.222Z,1186.50
2018-12-27T00:55:56.223Z,1185.20
2018-12-27T00:56:56.239Z,1184.80
2018-12-27T00:57:56.218Z,1209.00
2018-12-27T00:58:56.204Z,1242.00
2018-12-27T00:59:56.201Z,1225.80
2018-12-27T01:00:56.187Z,1231.80
2018-12-27T01:01:56.194Z,1219.00
2018-12-27T01:02:56.167Z,1221.60
2018-12-27T01:03:56.153Z,1218.40
2018-12-27T01:04:56.146Z,1219.70
2018-12-27T01:05:56.151Z,1222.10
2018-12-27T01:06:56.146Z,1220.80
2018-12-27T01:07:56.139Z,1193.30
2018-12-27T01:08:56.147Z,1189.30
2018-12-27T01:09:56.114Z,1181.70
2018-12-27T01:10:56.157Z,1186.50
2018-12-27T01:11:56.108Z,1182.60
2018-12-27T01:12:56.092Z,1180.70
2018-12-27T01:13:56.100Z,1180.40
2018-12-27T01:14:56.078Z,1196.60
2018-12-27T01:15:56.079Z,1189.60
2018-12-27T01:16:56.072Z,1206.40
2018-12-27T01:17:56.071Z,1194.70
2018-12-27T01:18:56.028Z,1187.50
2018-12-27T01:19:56.071Z,1195.30
2018-12-27T01:20:56.028Z,1190.90
2018-12-27T01:21:56.037Z,1191.20
2018-12-27T01:22:56.022Z,1201.20
2018-12-27T01:23:56.015Z,1200.60
2018-12-27T01:24:55.993Z,1197.10
2018-12-27T01:25:55.999Z,1202.60
2018-12-27T01:26:55.989Z,1188.20
2018-12-27T01:27:55.958Z,1193.70
2018-12-27T01:28:55.979Z,1186.90
2018-12-27T01:29:55.959Z,1185.30
2018-12-27T01:30:57.076Z,1198.20
2018-12-27T01:31:55.937Z,1191.10
2018-12-27T01:32:55.938Z,1181.10
2018-12-27T01:33:55.919Z,1192.30
2018-12-27T01:34:55.929Z,1181.20
2018-12-27T01:35:55.892Z,1191.40
2018-12-27T01:36:55.937Z,1183.60
2018-12-27T01:37:55.903Z,1182.90
2018-12-27T01:38:55.899Z,1197.40
2018-12-27T01:39:55.866Z,1199.30
2018-12-27T01:40:55.858Z,1191.60
2018-12-27T01:41:55.847Z,1194.40
2018-12-27T01:42:55.845Z,1202.80
2018-12-27T01:43:55.823Z,1180.40
2018-12-27T01:44:57.323Z,1191.80
2018-12-27T01:45:55.816Z,1195.10
2018-12-27T01:46:55.834Z,1196.20
2018-12-27T01:47:55.803Z,1198.10
2018-12-27T01:48:55.806Z,1201.80
2018-12-27T01:49:55.778Z,1197.10
2018-12-27T01:50:55.780Z,1186.00
2018-12-27T01:51:55.761Z,1198.50
2018-12-27T01:52:55.760Z,1192.40
2018-12-27T01:53:55.756Z,1186.00
2018-12-27T01:54:55.742Z,1204.70
2018-12-27T01:55:55.741Z,1202.40
2018-12-27T01:56:55.717Z,1206.30
2018-12-27T01:57:55.735Z,1195.00
2018-12-27T01:58:55.738Z,1197.50
2018-12-27T01:59:55.713Z,1187.40
2018-12-27T02:00:55.683Z,1187.80
2018-12-27T02:01:55.727Z,1185.80
2018-12-27T02:02:55.679Z,1190.30
2018-12-27T02:03:55.676Z,1202.30
2018-12-27T02:04:55.666Z,1182.60
2018-12-27T02:05:55.641Z,1193.80
2018-12-27T02:06:55.651Z,1190.60
2018-12-27T02:07:55.643Z,1190.60
2018-12-27T02:08:55.634Z,1191.70
2018-12-27T02:09:55.639Z,1198.40
2018-12-27T02:10:55.632Z,1191.90
2018-12-27T02:11:55.606Z,1199.60
2018-12-27T02:12:55.694Z,1191.50
2018-12-27T02:13:55.575Z,1191.80
2018-12-27T02:14:55.570Z,1182.50
2018-12-27T02:15:55.576Z,1199.70
2018-12-27T02:16:55.575Z,1183.20
2018-12-27T02:17:55.557Z,1196.30
2018-12-27T02:18:55.546Z,1199.90
2018-12-27T02:19:55.755Z,1189.20
2018-12-27T02:20:55.568Z,1204.10
2018-12-27T02:21:55.536Z,1194.70
2018-12-27T02:22:55.525Z,1193.70
2018-12-27T02:23:55.491Z,1201.30
2018-12-27T02:24:55.517Z,1205.40
2018-12-27T02:25:55.512Z,1200.90
2018-12-27T02:26:55.541Z,1192.80
2018-12-27T02:27:55.493Z,1185.20
2018-12-27T02:28:55.457Z,1175.00
2018-12-27T02:29:55.454Z,1204.90
2018-12-27T02:30:55.443Z,1191.40
2018-12-27T02:31:55.469Z,1201.60
2018-12-27T02:32:55.452Z,1197.10
2018-12-27T02:33:55.404Z,1209.40
2018-12-27T02:34:55.426Z,1200.30
2018-12-27T02:35:55.408Z,1196.90
2018-12-27T02:36:55.422Z,1198.10
2018-12-27T02:37:55.399Z,1197.80
2018-12-27T02:38:55.390Z,1188.90
2018-12-27T02:39:55.386Z,1186.00
2018-12-27T02:40:55.392Z,1192.50
2018-12-27T02:41:55.360Z,1201.40
2018-12-27T02:42:55.355Z,1191.80
2018-12-27T02:43:55.372Z,1199.50
2018-12-27T02:44:55.338Z,1184.50
2018-12-27T02:45:55.341Z,1183.30
2018-12-27T02:46:55.322Z,1181.60
2018-12-27T02:47:55.321Z,1194.80
2018-12-27T02:48:55.397Z,1191.80
2018-12-27T02:49:55.295Z,1191.10
2018-12-27T02:50:55.306Z,1196.70
2018-12-27T02:51:55.305Z,1194.70
2018-12-27T02:52:55.354Z,1195.40
2018-12-27T02:53:55.271Z,1192.10
2018-12-27T02:54:55.261Z,1199.00
2018-12-27T02:55:55.272Z,1183.50
2018-12-27T02:56:55.238Z,1187.90
2018-12-27T02:57:55.238Z,1190.80
2018-12-27T02:58:55.237Z,1190.80
2018-12-27T02:59:55.206Z,1181.60
2018-12-27T03:00:55.215Z,1182.60
2018-12-27T03:01:55.207Z,1186.50
2018-12-27T03:02:55.217Z,1196.20
2018-12-27T03:03:55.175Z,1188.90
2018-12-27T03:04:55.179Z,1198.00
2018-12-27T03:05:55.173Z,1191.70
2018-12-27T03:06:55.182Z,1191.30
2018-12-27T03:07:55.151Z,1197.00
2018-12-27T03:08:55.196Z,1196.30
2018-12-27T03:09:55.149Z,1183.20
2018-12-27T03:10:55.133Z,1194.60
2018-12-27T03:11:55.142Z,1188.20
2018-12-27T03:12:55.113Z,1184.90
2018-12-27T03:13:55.103Z,1204.00
2018-12-27T03:14:55.149Z,1195.30
2018-12-27T03:15:55.096Z,1197.40
2018-12-27T03:16:55.071Z,1194.90
2018-12-27T03:17:55.121Z,1199.90
2018-12-27T03:18:55.081Z,1185.40
2018-12-27T03:19:55.047Z,1189.40
2018-12-27T03:20:55.059Z,1186.60
2018-12-27T03:21:55.031Z,1189.40
2018-12-27T03:22:55.074Z,1179.70
2018-12-27T03:23:55.054Z,1175.40
2018-12-27T03:24:55.029Z,1188.60
2018-12-27T03:25:55.046Z,1179.50
2018-12-27T03:26:54.997Z,1185.80
2018-12-27T03:27:54.995Z,1189.20
2018-12-27T03:28:54.985Z,1187.60
2018-12-27T03:29:54.996Z,1187.10
2018-12-27T03:30:54.957Z,1200.90
2018-12-27T03:31:54.958Z,1188.00
2018-12-27T03:32:54.998Z,1178.60
2018-12-27T03:33:54.989Z,1195.40
2018-12-27T03:34:54.938Z,1183.40
2018-12-27T03:35:54.939Z,1184.70
2018-12-27T03:36:54.911Z,1192.20
2018-12-27T03:37:54.910Z,1186.10
2018-12-27T03:38:54.896Z,1191.50
2018-12-27T03:39:54.892Z,1190.40
2018-12-27T03:40:54.899Z,1183.30
2018-12-27T03:41:54.894Z,1193.50
2018-12-27T03:42:54.863Z,1185.90
2018-12-27T03:43:54.859Z,1183.30
2018-12-27T03:44:54.887Z,1183.60
2018-12-27T03:45:54.870Z,1177.10
2018-12-27T03:46:54.842Z,1197.00
2018-12-27T03:47:54.831Z,1182.30
2018-12-27T03:48:54.840Z,1190.60
2018-12-27T03:49:54.860Z,1199.70
2018-12-27T03:50:54.822Z,1195.90
2018-12-27T03:51:54.798Z,1182.30
2018-12-27T03:52:54.799Z,1186.00
2018-12-27T03:53:54.782Z,1195.40
2018-12-27T03:54:54.759Z,1195.30
2018-12-27T03:55:54.772Z,1191.60
2018-12-27T03:56:54.810Z,1187.30
2018-12-27T03:57:54.740Z,1176.90
2018-12-27T03:58:54.799Z,1176.20
2018-12-27T03:59:54.739Z,1179.20
2018-12-27T04:00:54.736Z,1185.60
2018-12-27T04:01:54.750Z,1181.00
2018-12-27T04:02:54.705Z,1187.70
2018-12-27T04:04:01.446Z,1182.50
2018-12-27T04:04:54.949Z,1184.00
2018-12-27T04:05:54.739Z,1220.80
2018-12-27T04:06:54.691Z,1227.30
2018-12-27T04:07:54.689Z,1240.10
2018-12-27T04:08:54.679Z,1226.10
2018-12-27T04:09:54.660Z,1231.50
2018-12-27T04:10:54.668Z,1229.90
2018-12-27T04:11:54.659Z,1227.40
2018-12-27T04:12:54.676Z,1231.30
2018-12-27T04:13:54.656Z,1219.00
2018-12-27T04:14:54.635Z,1222.70
2018-12-27T04:15:54.622Z,1229.60
2018-12-27T04:16:54.606Z,1222.40
2018-12-27T04:17:54.630Z,1225.10
2018-12-27T04:18:54.623Z,1217.20
2018-12-27T04:19:54.587Z,1224.50
2018-12-27T04:20:54.572Z,1223.10
2018-12-27T04:21:54.567Z,1221.20
2018-12-27T04:22:54.576Z,1231.80
2018-12-27T04:23:54.558Z,1209.60
2018-12-27T04:24:54.555Z,1178.00
2018-12-27T04:25:54.541Z,1186.60
2018-12-27T04:26:54.519Z,1183.80
2018-12-27T04:27:54.535Z,1186.60
2018-12-27T04:28:54.524Z,1193.40
2018-12-27T04:29:54.515Z,1183.40
2018-12-27T04:30:54.507Z,1174.30
2018-12-27T04:31:54.492Z,1177.30
2018-12-27T04:32:54.478Z,1180.70
2018-12-27T04:33:54.478Z,1183.70
2018-12-27T04:34:54.468Z,1188.30
2018-12-27T04:35:54.450Z,1169.80
2018-12-27T04:36:54.453Z,1175.40
2018-12-27T04:37:54.444Z,1185.10
2018-12-27T04:38:54.452Z,1177.50
2018-12-27T04:39:54.485Z,1174.00
2018-12-27T04:40:54.433Z,1179.10
2018-12-27T04:41:54.474Z,1189.80
2018-12-27T04:42:54.417Z,1183.70
2018-12-27T04:43:54.409Z,1184.30
2018-12-27T04:44:54.392Z,1203.10
2018-12-27T04:45:54.379Z,1191.80
2018-12-27T04:46:54.389Z,1193.70
2018-12-27T04:47:54.364Z,1188.00
2018-12-27T04:48:54.350Z,1192.40
2018-12-27T04:49:54.329Z,1204.70
2018-12-27T04:50:54.342Z,1222.90
2018-12-27T04:51:54.345Z,1221.50
2018-12-27T04:52:54.342Z,1205.00
2018-12-27T04:53:54.346Z,1214.80
2018-12-27T04:54:54.365Z,1215.50
2018-12-27T04:55:54.358Z,1217.80
2018-12-27T04:56:54.357Z,1199.70
2018-12-27T04:57:54.284Z,1219.10
2018-12-27T04:58:54.285Z,1216.10
2018-12-27T04:59:54.281Z,1190.20
2018-12-27T05:00:54.264Z,1196.40
2018-12-27T05:01:54.271Z,1202.60
2018-12-27T05:02:54.257Z,1201.50
2018-12-27T05:03:54.275Z,1196.10
2018-12-27T05:04:54.232Z,1191.40
2018-12-27T05:05:54.258Z,1200.90
2018-12-27T05:06:54.207Z,1190.20
2018-12-27T05:07:54.215Z,1191.40
2018-12-27T05:08:54.204Z,1187.20
2018-12-27T05:09:54.210Z,1194.00
2018-12-27T05:10:54.196Z,1203.50
2018-12-27T05:11:54.174Z,1195.60
2018-12-27T05:12:54.172Z,1193.30
2018-12-27T05:13:54.457Z,1194.40
2018-12-27T05:14:54.150Z,1200.70
2018-12-27T05:15:54.148Z,1202.00
2018-12-27T05:16:54.123Z,1205.20
2018-12-27T05:17:54.121Z,1198.60
2018-12-27T05:18:54.129Z,1187.90
2018-12-27T05:19:54.118Z,1198.00
2018-12-27T05:20:54.132Z,1200.90
2018-12-27T05:21:54.078Z,1199.90
2018-12-27T05:22:54.078Z,1203.40
2018-12-27T05:23:54.137Z,1201.10
2018-12-27T05:24:54.062Z,1200.40
2018-12-27T05:25:54.089Z,1206.40
2018-12-27T05:26:54.052Z,1191.30
2018-12-27T05:27:54.101Z,1207.40
2018-12-27T05:28:54.041Z,1195.00
2018-12-27T05:29:54.021Z,1208.30
2018-12-27T05:30:54.031Z,1193.00
2018-12-27T05:31:54.020Z,1200.20
2018-12-27T05:32:54.019Z,1189.10
2018-12-27T05:33:54.011Z,1204.30
2018-12-27T05:34:54.007Z,1216.80
2018-12-27T05:35:53.993Z,1190.40
2018-12-27T05:36:53.964Z,1205.40
2018-12-27T05:37:53.979Z,1213.00
2018-12-27T05:38:53.961Z,1210.70
2018-12-27T05:39:53.978Z,1206.20
2018-12-27T05:40:53.933Z,1200.70
2018-12-27T05:41:53.932Z,1199.70
2018-12-27T05:42:54.197Z,1209.00
2018-12-27T05:43:53.910Z,1205.60
2018-12-27T05:44:53.919Z,1202.70
2018-12-27T05:45:53.908Z,1203.40
2018-12-27T05:46:53.904Z,1213.30
2018-12-27T05:47:53.882Z,1208.00
2018-12-27T05:48:53.888Z,1200.30
2018-12-27T05:49:53.871Z,1206.80
2018-12-27T05:50:53.862Z,1190.20
2018-12-27T05:51:53.857Z,1205.40
2018-12-27T05:52:53.839Z,1212.40
2018-12-27T05:53:53.842Z,1207.10
2018-12-27T05:54:53.835Z,1190.50
2018-12-27T05:55:53.824Z,1183.60
2018-12-27T05:56:53.814Z,1190.70
2018-12-27T05:57:53.814Z,1198.30
2018-12-27T05:58:53.800Z,1205.00
2018-12-27T05:59:53.877Z,1196.90
2018-12-27T06:00:53.772Z,1186.80
2018-12-27T06:01:53.781Z,1202.90
2018-12-27T06:02:53.780Z,1217.30
2018-12-27T06:03:53.787Z,1196.90
2018-12-27T06:04:53.812Z,1191.20
2018-12-27T06:05:53.765Z,1198.90
2018-12-27T06:06:53.715Z,1203.20
2018-12-27T06:07:53.729Z,1206.60
2018-12-27T06:08:53.713Z,1204.70
2018-12-27T06:09:53.730Z,1200.00
2018-12-27T06:10:53.751Z,1204.80
2018-12-27T06:11:53.683Z,1196.90
2018-12-27T06:12:53.690Z,1188.50
2018-12-27T06:13:53.691Z,1204.80
2018-12-27T06:14:53.672Z,1213.50
2018-12-27T06:15:53.668Z,1201.30
2018-12-27T06:16:53.665Z,1208.40
2018-12-27T06:17:53.655Z,1209.40
2018-12-27T06:18:53.645Z,1221.00
2018-12-27T06:19:53.645Z,1216.30
2018-12-27T06:20:53.599Z,1222.20
2018-12-27T06:21:53.592Z,1227.90
2018-12-27T06:22:53.624Z,1225.50
2018-12-27T06:23:53.604Z,1225.10
2018-12-27T06:24:53.582Z,1241.40
2018-12-27T06:25:53.590Z,1231.40
2018-12-27T06:26:53.582Z,1213.70
2018-12-27T06:27:53.569Z,1215.20
2018-12-27T06:28:53.571Z,1218.30
2018-12-27T06:29:53.570Z,1231.10
2018-12-27T06:30:53.527Z,1215.20
2018-12-27T06:31:53.518Z,1225.80
2018-12-27T06:32:53.565Z,1224.80
2018-12-27T06:33:53.531Z,1235.20
2018-12-27T06:34:53.524Z,1238.30
2018-12-27T06:35:53.484Z,1231.50
2018-12-27T06:36:53.467Z,1227.90
2018-12-27T06:37:53.492Z,1223.20
2018-12-27T06:38:53.463Z,1233.50
2018-12-27T06:39:53.444Z,1235.60
2018-12-27T06:40:53.449Z,1232.20
2018-12-27T06:41:53.438Z,1229.70
2018-12-27T06:42:53.442Z,1240.00
2018-12-27T06:43:53.434Z,1239.90
2018-12-27T06:44:53.431Z,1236.00
2018-12-27T06:45:53.424Z,1245.00
2018-12-27T06:46:53.427Z,1224.90
2018-12-27T06:47:53.396Z,1229.90
2018-12-27T06:48:53.377Z,1222.90
2018-12-27T06:49:53.390Z,1231.80
2018-12-27T06:50:53.374Z,1227.30
2018-12-27T06:51:53.361Z,1231.80
2018-12-27T06:52:53.378Z,1224.10
2018-12-27T06:53:53.361Z,1221.50
2018-12-27T06:54:53.343Z,1220.00
2018-12-27T06:55:53.352Z,1232.10
2018-12-27T06:56:53.491Z,1227.30
2018-12-27T06:57:53.326Z,1225.30
2018-12-27T06:58:53.289Z,1225.00
2018-12-27T06:59:53.348Z,1228.00
2018-12-27T07:00:53.315Z,1229.30
2018-12-27T07:01:53.345Z,1223.70
2018-12-27T07:02:53.283Z,1214.70
2018-12-27T07:03:53.266Z,1217.60
2018-12-27T07:04:53.261Z,1226.00
2018-12-27T07:05:53.258Z,1230.90
2018-12-27T07:06:53.291Z,1230.50
2018-12-27T07:07:53.238Z,1218.80
2018-12-27T07:08:53.222Z,1221.90
2018-12-27T07:09:53.214Z,1224.40
2018-12-27T07:10:53.208Z,1225.80
2018-12-27T07:11:53.215Z,1213.70
2018-12-27T07:12:53.213Z,1223.70
2018-12-27T07:13:53.178Z,1231.70
2018-12-27T07:14:53.176Z,1230.30
2018-12-27T07:15:53.197Z,1235.90
2018-12-27T07:16:53.146Z,1220.70
2018-12-27T07:17:53.179Z,1233.20
2018-12-27T07:18:53.203Z,1230.60
2018-12-27T07:19:53.158Z,1227.20
2018-12-27T07:20:53.133Z,1232.40
2018-12-27T07:21:53.125Z,1218.20
2018-12-27T07:22:53.134Z,1211.50
2018-12-27T07:23:53.117Z,1223.80
2018-12-27T07:24:53.097Z,1217.70
2018-12-27T07:25:53.118Z,1222.30
2018-12-27T07:26:53.077Z,1219.80
2018-12-27T07:27:53.097Z,1222.80
2018-12-27T07:28:53.062Z,1212.10
2018-12-27T07:29:53.047Z,1218.50
2018-12-27T07:30:53.042Z,1222.30
2018-12-27T07:31:53.053Z,1226.70
2018-12-27T07:32:53.072Z,1221.70
2018-12-27T07:33:53.031Z,1213.90
2018-12-27T07:34:56.383Z,1221.20
2018-12-27T07:35:53.026Z,1217.80
2018-12-27T07:36:53.008Z,1213.00
2018-12-27T07:37:53.029Z,1218.10
2018-12-27T07:38:52.988Z,1207.30
2018-12-27T07:39:53.028Z,1217.30
2018-12-27T07:40:52.969Z,1224.60
2018-12-27T07:41:53.015Z,1219.70
2018-12-27T07:42:52.998Z,1212.30
2018-12-27T07:43:52.951Z,1217.00
2018-12-27T07:44:52.953Z,1228.50
2018-12-27T07:45:52.921Z,1212.00
2018-12-27T07:46:53.043Z,1214.40
2018-12-27T07:47:52.933Z,1209.10
2018-12-27T07:48:52.927Z,1219.30
2018-12-27T07:49:53.193Z,1211.80
2018-12-27T07:50:52.902Z,1221.70
2018-12-27T07:51:52.875Z,1227.90
2018-12-27T07:52:52.918Z,1214.50
2018-12-27T07:53:52.845Z,1212.60
2018-12-27T07:54:52.865Z,1221.40
2018-12-27T07:55:52.897Z,1224.60
2018-12-27T07:56:52.827Z,1210.00
2018-12-27T07:57:52.831Z,1217.10
2018-12-27T07:58:52.830Z,1231.80
2018-12-27T07:59:52.815Z,1214.60
2018-12-27T08:00:53.097Z,1220.60
2018-12-27T08:01:52.782Z,1191.10
2018-12-27T08:02:52.843Z,1200.40
2018-12-27T08:03:52.775Z,1227.40
2018-12-27T08:04:52.763Z,1209.90
2018-12-27T08:05:52.786Z,1223.80
2018-12-27T08:06:52.785Z,1220.60
2018-12-27T08:07:52.756Z,1218.50
2018-12-27T08:08:52.723Z,1213.80
2018-12-27T08:09:52.736Z,1200.30
2018-12-27T08:10:52.713Z,1217.70
2018-12-27T08:11:52.714Z,1209.20
2018-12-27T08:12:52.724Z,1207.70
2018-12-27T08:13:52.692Z,1213.50
2018-12-27T08:14:52.681Z,1212.00
2018-12-27T08:15:52.664Z,1208.10
2018-12-27T08:16:52.670Z,1214.20
2018-12-27T08:17:52.672Z,1214.80
2018-12-27T08:18:52.665Z,1221.10
2018-12-27T08:19:52.688Z,1211.30
2018-12-27T08:20:52.646Z,1216.40
2018-12-27T08:21:52.672Z,1219.50
2018-12-27T08:22:52.649Z,1218.70
2018-12-27T08:23:52.643Z,1212.00
2018-12-27T08:24:52.623Z,1222.80
2018-12-27T08:25:52.603Z,1209.90
2018-12-27T08:26:52.608Z,1213.60
2018-12-27T08:27:52.593Z,1220.30
2018-12-27T08:28:52.589Z,1217.90
2018-12-27T08:29:52.568Z,1229.00
2018-12-27T08:30:52.577Z,1228.00
2018-12-27T08:31:52.612Z,1229.50
2018-12-27T08:32:52.552Z,1227.20
2018-12-27T08:33:52.540Z,1225.90
2018-12-27T08:34:52.527Z,1218.70
2018-12-27T08:35:52.573Z,1231.80
2018-12-27T08:36:52.542Z,1228.80
2018-12-27T08:37:52.511Z,1214.00
2018-12-27T08:38:52.476Z,1219.20
2018-12-27T08:39:52.489Z,1221.60
2018-12-27T08:40:52.483Z,1203.60
2018-12-27T08:41:52.480Z,1224.30
2018-12-27T08:42:52.460Z,1223.60
2018-12-27T08:43:52.514Z,1227.30
2018-12-27T08:44:52.473Z,1224.10
2018-12-27T08:45:52.495Z,1221.80
2018-12-27T08:46:52.433Z,1226.00
2018-12-27T08:47:52.415Z,1229.80
2018-12-27T08:48:52.410Z,1230.50
2018-12-27T08:49:52.414Z,1221.10
2018-12-27T08:50:52.393Z,1224.00
2018-12-27T08:51:52.394Z,1225.60
2018-12-27T08:52:52.394Z,1216.90
2018-12-27T08:53:52.622Z,1225.20
2018-12-27T08:54:52.375Z,1232.40
2018-12-27T08:55:52.359Z,1225.00
2018-12-27T08:56:52.362Z,1223.90
2018-12-27T08:57:52.366Z,1216.50
2018-12-27T08:58:52.354Z,1231.10
2018-12-27T08:59:52.326Z,1228.20
2018-12-27T09:00:52.340Z,1225.00
2018-12-27T09:01:52.319Z,1215.30
2018-12-27T09:02:52.292Z,1217.10
2018-12-27T09:03:52.304Z,1225.10
2018-12-27T09:04:52.299Z,1229.10
2018-12-27T09:05:52.285Z,1222.30
2018-12-27T09:06:52.295Z,1220.80
2018-12-27T09:07:52.265Z,1217.30
2018-12-27T09:08:52.259Z,1225.10
2018-12-27T09:09:52.252Z,1221.50
2018-12-27T09:10:52.238Z,1210.80
2018-12-27T09:11:52.226Z,1227.20
2018-12-27T09:12:52.218Z,1209.90
2018-12-27T09:13:52.237Z,1217.60
2018-12-27T09:14:52.208Z,1215.60
2018-12-27T09:15:52.217Z,1212.90
2018-12-27T09:16:52.210Z,1225.20
2018-12-27T09:17:52.243Z,1213.60
2018-12-27T09:18:52.181Z,1218.50
2018-12-27T09:19:52.179Z,1210.60
2018-12-27T09:20:52.168Z,1228.60
2018-12-27T09:21:52.193Z,1212.70
2018-12-27T09:22:52.132Z,1223.50
2018-12-27T09:23:52.144Z,1210.20
2018-12-27T09:24:52.145Z,1221.60
2018-12-27T09:25:52.134Z,1225.40
2018-12-27T09:26:52.107Z,1216.80
2018-12-27T09:27:52.096Z,1223.50
2018-12-27T09:28:52.082Z,1236.20
2018-12-27T09:29:52.114Z,1223.90
2018-12-27T09:30:52.068Z,1224.00
2018-12-27T09:31:52.076Z,1225.10
2018-12-27T09:32:52.058Z,1216.30
2018-12-27T09:33:52.058Z,1222.30
2018-12-27T09:34:52.099Z,1217.40
2018-12-27T09:35:52.044Z,1206.30
2018-12-27T09:36:52.052Z,1210.30
2018-12-27T09:37:52.033Z,1205.60
2018-12-27T09:38:52.024Z,1211.50
2018-12-27T09:39:52.017Z,1213.00
2018-12-27T09:40:52.021Z,1211.50
2018-12-27T09:41:52.039Z,1213.20
2018-12-27T09:42:52.001Z,1211.90
2018-12-27T09:43:51.991Z,1202.90
2018-12-27T09:44:52.003Z,1207.20
2018-12-27T09:45:51.977Z,1207.80
2018-12-27T09:46:51.952Z,1213.40
2018-12-27T09:47:51.940Z,1207.70
2018-12-27T09:48:51.964Z,1208.90
2018-12-27T09:49:51.991Z,1202.30
2018-12-27T09:50:51.944Z,1204.20
2018-12-27T09:51:51.928Z,1203.50
2018-12-27T09:52:51.933Z,1196.50
2018-12-27T09:53:51.926Z,1204.80
2018-12-27T09:54:51.896Z,1211.30
2018-12-27T09:55:51.906Z,1215.40
2018-12-27T09:56:51.900Z,1201.30
2018-12-27T09:57:51.905Z,1200.50
2018-12-27T09:58:51.865Z,1220.70
2018-12-27T09:59:51.856Z,1199.80
2018-12-27T10:00:51.848Z,1202.10
2018-12-27T10:01:51.849Z,1207.90
2018-12-27T10:02:51.829Z,1198.40
2018-12-27T10:03:51.848Z,1211.50
2018-12-27T10:04:51.869Z,1200.50
2018-12-27T10:05:51.815Z,1195.20
2018-12-27T10:06:51.799Z,1207.70
2018-12-27T10:07:57.492Z,1201.40
2018-12-27T10:08:51.794Z,1193.70
2018-12-27T10:09:51.773Z,1201.90
2018-12-27T10:10:51.779Z,1196.90
2018-12-27T10:11:51.770Z,1197.10
2018-12-27T10:12:51.791Z,1207.70
2018-12-27T10:13:51.776Z,1209.80
2018-12-27T10:14:51.754Z,1185.00
2018-12-27T10:15:51.775Z,1186.60
2018-12-27T10:16:51.766Z,1200.90
2018-12-27T10:17:51.750Z,1193.90
2018-12-27T10:18:51.715Z,1197.50
2018-12-27T10:19:51.731Z,1189.30
2018-12-27T10:20:51.812Z,1189.10
2018-12-27T10:21:51.735Z,1186.30
2018-12-27T10:22:51.713Z,1198.20
2018-12-27T10:23:51.697Z,1192.50
2018-12-27T10:24:52.006Z,1200.20
2018-12-27T10:25:51.708Z,1196.10
2018-12-27T10:26:51.687Z,1188.70
2018-12-27T10:27:51.658Z,1187.80
2018-12-27T10:28:51.709Z,1187.20
2018-12-27T10:29:51.674Z,1187.70
2018-12-27T10:30:51.673Z,1189.60
2018-12-27T10:31:51.683Z,1189.10
2018-12-27T10:32:51.644Z,1195.90
2018-12-27T10:33:51.648Z,1197.20
2018-12-27T10:34:51.601Z,1195.40
2018-12-27T10:35:51.614Z,1200.30
2018-12-27T10:36:51.646Z,1199.50
2018-12-27T10:37:51.599Z,1196.80
2018-12-27T10:38:51.603Z,1196.20
2018-12-27T10:39:51.588Z,1195.50
2018-12-27T10:40:51.581Z,1187.80
2018-12-27T10:41:51.620Z,1188.60
2018-12-27T10:42:51.563Z,1182.70
2018-12-27T10:43:51.555Z,1198.60
2018-12-27T10:44:51.568Z,1195.80
2018-12-27T10:45:51.818Z,1174.20
2018-12-27T10:46:51.560Z,1181.40
2018-12-27T10:47:51.539Z,1183.70
2018-12-27T10:48:51.533Z,1187.20
2018-12-27T10:49:51.530Z,1193.10
2018-12-27T10:50:51.528Z,1192.80
2018-12-27T10:51:51.525Z,1185.80
2018-12-27T10:52:51.502Z,1183.80
2018-12-27T10:53:51.514Z,1184.90
2018-12-27T10:54:51.488Z,1198.30
2018-12-27T10:55:51.492Z,1195.00
2018-12-27T10:56:51.475Z,1184.20
2018-12-27T10:57:51.455Z,1186.30
2018-12-27T10:58:51.458Z,1181.00
2018-12-27T10:59:51.449Z,1194.30
2018-12-27T11:00:51.449Z,1174.20
2018-12-27T11:01:51.452Z,1171.30
2018-12-27T11:02:51.427Z,1161.60
2018-12-27T11:03:51.434Z,1162.20
2018-12-27T11:04:51.426Z,1154.60
2018-12-27T11:05:51.462Z,1154.30
2018-12-27T11:06:51.396Z,1177.60
2018-12-27T11:07:51.420Z,1161.60
2018-12-27T11:08:51.389Z,1154.60
2018-12-27T11:09:51.416Z,1154.30
2018-12-27T11:10:51.438Z,1152.50
2018-12-27T11:11:51.388Z,1150.30
2018-12-27T11:12:51.384Z,1154.90
2018-12-27T11:13:51.378Z,1159.60
2018-12-27T11:14:51.365Z,1168.30
2018-12-27T11:15:51.418Z,1165.10
2018-12-27T11:16:51.368Z,1159.00
2018-12-27T11:17:51.335Z,1143.00
2018-12-27T11:18:51.329Z,1141.20
2018-12-27T11:19:51.323Z,1150.40
2018-12-27T11:20:51.344Z,1116.00
2018-12-27T11:21:51.329Z,1133.50
2018-12-27T11:22:51.327Z,1130.30
2018-12-27T11:23:51.293Z,1130.70
2018-12-27T11:24:51.302Z,1137.90
2018-12-27T11:25:51.307Z,1130.20
2018-12-27T11:26:51.301Z,1137.20
2018-12-27T11:27:51.286Z,1123.60
2018-12-27T11:28:51.285Z,1136.00
2018-12-27T11:29:51.290Z,1139.80
2018-12-27T11:30:51.280Z,1138.90
2018-12-27T11:31:51.266Z,1107.10
2018-12-27T11:32:51.247Z,1082.60
2018-12-27T11:33:51.241Z,1078.30
2018-12-27T11:34:51.257Z,1089.10
2018-12-27T11:35:55.800Z,1087.10
2018-12-27T11:36:51.248Z,1082.30
2018-12-27T11:37:51.240Z,1088.50
2018-12-27T11:38:51.223Z,1095.50
2018-12-27T11:39:51.237Z,1093.20
2018-12-27T11:40:51.499Z,1062.10
2018-12-27T11:41:51.219Z,1048.60
2018-12-27T11:42:51.188Z,1047.50
2018-12-27T11:43:51.201Z,1057.20
2018-12-27T11:44:51.200Z,1067.70
2018-12-27T11:45:51.202Z,1101.20
2018-12-27T11:46:51.177Z,1101.80
2018-12-27T11:47:51.227Z,1097.10
2018-12-27T11:48:51.181Z,1105.70
2018-12-27T11:49:51.176Z,1105.10
2018-12-27T11:50:51.172Z,1086.70
2018-12-27T11:51:51.164Z,1092.80
2018-12-27T11:52:51.162Z,1101.50
2018-12-27T11:53:51.167Z,1092.30
2018-12-27T11:54:51.165Z,1110.50
2018-12-27T11:55:51.132Z,1108.70
2018-12-27T11:56:51.169Z,1128.90
2018-12-27T11:57:51.341Z,1108.20
2018-12-27T11:58:51.142Z,1091.60
2018-12-27T11:59:51.146Z,1092.10
2018-12-27T12:00:51.098Z,1096.80
2018-12-27T12:01:51.083Z,1116.60
2018-12-27T12:02:51.124Z,1109.90
2018-12-27T12:03:51.114Z,1116.80
2018-12-27T12:04:51.135Z,1101.20
2018-12-27T12:05:51.090Z,1107.20